• Join FlightAware (Why Join?)
  • Login
  • US Flag 
03:08AM EDT


 

Airport Tracker/Info


-or-


 

Live Flight TrackerFlight Track Log ✈ AWE1600 ✈ 29-Apr-2013 ✈ KPHL - KDTW

Flight Track Log - Related Links

Times and Time Zones

All times are in EDT time to prevent confusion due to time zone crossing. See the AWE1600 flight status page for this flight to view local times or setup timezone preferences in your user account.

Time Position Orientation Groundspeed Altitude Reporting Facility
EDT Latitude Longitude Course Direction KTS MPH feet Rate Location/Type
09:21AM 39.8833 -75.2167 270° West 159 183 900  Level Philadelphia TRACON
09:22AM 39.9000 -75.1667 67° East 211 243 3,000 2,220 Climbing Philadelphia TRACON
09:23AM 39.9500 -75.1167 37° Northeast 293 337 5,400 3,120 Climbing Philadelphia TRACON
09:24AM 39.9158 -75.6719 258° West  Level FlightAware Approximate
09:24AM 39.9667 -75.2000 285° West 254 292 9,300  Level Philadelphia TRACON
09:25AM 39.9000 -75.7835 270° West  Level FlightAware Approximate
09:25AM 39.9500 -75.3167 259° West 346 398 9,900  Level Philadelphia TRACON
09:26AM 39.9001 -75.8973 270° West  Level FlightAware Approximate
09:26AM 39.9417 -75.4467 265° West 348 400 10,000  Level New York Center
09:27AM 39.9261 -75.5756 261° West 359 413 10,000 480 Level New York Center
09:28AM 39.9167 -75.7022 264° West 359 413 11,000 960 Climbing New York Center
09:29AM 39.9133 -75.8319 268° West 354 407 12,000 1,620 Climbing New York Center
09:30AM 39.9122 -75.9508 269° West 366 421 14,400 2,520 Climbing New York Center
09:31AM 39.9081 -76.0886 268° West 372 428 17,200 1,740 Climbing New York Center
09:32AM 39.9114 -76.2433 272° West 383 441 18,000 960 Climbing New York Center
09:33AM 39.9144 -76.3572 272° West 391 450 19,200 1,800 Climbing New York Center
09:34AM 39.9206 -76.5336 273° West 404 465 21,700 2,280 Climbing New York Center
09:35AM 39.9278 -76.6831 274° West 409 471 23,800 1,860 Climbing New York Center
09:36AM 39.9494 -76.8314 281° West 414 476 25,500 1,440 Climbing New York Center
09:37AM 39.9792 -76.9828 284° West 420 483 26,800 1,800 Climbing New York Center
09:38AM 40.0086 -77.1319 284° West 425 489 29,100 2,160 Climbing New York Center
09:39AM 40.0575 -77.2719 295° West 425 489 31,100 1,620 Climbing New York Center
09:41AM 40.1847 -77.5283 303° West 410 472 34,200 1,440 Climbing Cleveland Center
09:42AM 40.2300 -77.6650 293° West 415 478 35,700 1,260 Climbing Cleveland Center
09:43AM 40.2231 -77.8067 266° West 393 452 36,800 840 Climbing Cleveland Center
09:44AM 40.2119 -77.9542 264° West 393 452 37,400 600 Climbing Cleveland Center
09:45AM 40.2028 -78.1011 265° West 405 466 38,000 240 Climbing Cleveland Center
09:46AM 40.1975 -78.2456 267° West 405 466 38,000  Level Cleveland Center
09:47AM 40.1878 -78.3953 265° West 405 466 38,000  Level Cleveland Center
09:48AM 40.1803 -78.5422 266° West 405 466 38,000  Level Cleveland Center
09:49AM 40.1703 -78.6919 265° West 405 466 38,000  Level Cleveland Center
09:50AM 40.1622 -78.8364 266° West 405 466 38,000 -240 Level Cleveland Center
09:51AM 40.1539 -78.9858 266° West 405 466 37,600 -720 Descending Cleveland Center
09:52AM 40.1497 -79.1408 268° West 412 474 36,600 -840 Descending Cleveland Center
09:53AM 40.1869 -79.2786 290° West 412 474 36,000 -300 Descending Cleveland Center
09:54AM 40.2428 -79.4325 295° West 407 468 36,000 -300 Level Cleveland Center
09:55AM 40.2900 -79.5706 294° West 417 480 35,400 -840 Descending Cleveland Center
09:56AM 40.3328 -79.7033 293° West 427 491 34,400 -1,020 Descending Cleveland Center
09:57AM 40.3794 -79.8444 294° West 427 491 33,400 -1,020 Descending Cleveland Center
09:58AM 40.4261 -79.9831 294° West 427 491 32,400 -960 Descending Cleveland Center
09:59AM 40.4706 -80.1272 292° West 427 491 31,500 -960 Descending Cleveland Center
10:00AM 40.5211 -80.2744 294° West 432 497 30,500 -780 Descending Cleveland Center
10:01AM 40.5714 -80.4219 294° West 432 497 30,000 -300 Descending Cleveland Center
10:02AM 40.6383 -80.5667 301° West 432 497 30,000  Level Cleveland Center
10:03AM 40.6989 -80.6844 304° West 432 497 30,000  Level Cleveland Center
10:04AM 40.7672 -80.8161 304° West 432 497 30,000  Level Cleveland Center
10:05AM 40.8358 -80.9453 305° West 432 497 30,000  Level Cleveland Center
10:06AM 40.9000 -81.0803 302° West 437 503 30,000 -300 Level Cleveland Center
10:07AM 40.9639 -81.2128 303° West 432 497 29,500 -780 Descending Cleveland Center
10:08AM 41.0297 -81.3456 303° West 432 497 28,500 -1,020 Descending Cleveland Center
10:09AM 41.1017 -81.4897 304° West 432 497 27,500 -960 Descending Cleveland Center
10:10AM 41.1611 -81.6064 304° West 432 497 26,600 -960 Descending Cleveland Center
10:11AM 41.2244 -81.7372 303° West 426 490 25,600 -1,020 Descending Cleveland Center
10:12AM 41.2878 -81.8653 303° West 421 484 24,600 -1,020 Descending Cleveland Center
10:13AM 41.3508 -81.9911 304° West 421 484 23,600 -1,020 Descending Cleveland Center
10:14AM 41.4097 -82.1197 301° West 421 484 22,600 -1,500 Descending Cleveland Center
10:15AM 41.4706 -82.2458 303° West 415 478 20,600 -2,100 Descending Cleveland Center
10:16AM 41.5272 -82.3639 303° West 399 459 18,400 -2,280 Descending Cleveland Center
10:16AM 41.5492 -82.4117 302° West 385 443 17,600 -2,040 Descending Cleveland Center
10:17AM 41.5836 -82.4819 303° West 385 443 16,400 -1,980 Descending Cleveland Center
10:17AM 41.6078 -82.5272 306° West 368 423 15,600 -2,100 Descending Cleveland Center
10:18AM 41.6439 -82.6117 300° West 380 437 14,300 -2,040 Descending Cleveland Center
10:18AM 41.6642 -82.6428 311° West 372 428 13,600 -1,800 Descending Cleveland Center
10:19AM 41.6961 -82.7217 298° West 368 423 12,500 -1,500 Descending Cleveland Center
10:19AM 41.7183 -82.7642 305° West 355 409 12,100 -540 Descending Cleveland Center
10:20AM 41.7589 -82.8211 314° West 361 415 12,000 -120 Descending Cleveland Center
10:20AM 41.7894 -82.8556 320° Northwest 359 413 12,000  Level Cleveland Center
10:21AM 41.8322 -82.9100 317° Northwest 350 403 12,000  Level Cleveland Center
10:21AM 41.8628 -82.9447 320° Northwest 356 410 12,000  Level Cleveland Center
10:22AM 41.9053 -82.9964 318° Northwest 350 403 12,000  Level Cleveland Center
10:22AM 41.9358 -83.0339 318° Northwest 354 407 12,000 -240 Level Cleveland Center
10:23AM 41.9786 -83.0858 318° Northwest 350 403 11,800 -720 Descending Cleveland Center
10:23AM 42.0150 -83.1292 319° Northwest 356 410 11,300 -840 Descending Cleveland Center
10:24AM 42.0517 -83.1725 319° Northwest 355 409 11,000 -300 Descending Cleveland Center
10:24AM 42.0842 -83.2075 321° Northwest 291 335 11,000 -120 Level Cleveland Center
10:25AM 42.1214 -83.2258 340° North 315 362 10,900 -900 Descending Cleveland Center
10:25AM 42.1589 -83.2247 North 283 326 10,100 -1,320 Descending Cleveland Center
10:26AM 42.1947 -83.2036 24° Northeast 263 303 9,600 -840 Descending Cleveland Center
10:26AM 42.2244 -83.1797 31° Northeast 266 306 9,300 -960 Descending Cleveland Center
10:27AM 42.2881 -83.1403 25° Northeast 216 249 8,200 -1,740 Descending Cleveland Center
10:28AM 42.3381 -83.1311 North 200 230 5,800 -2,400 Descending Cleveland Center